createdAt,value
2019-02-27T00:01:40.775Z,80.04
2019-02-27T00:04:11.437Z,79.77
2019-02-27T00:06:41.897Z,79.99
2019-02-27T00:09:12.851Z,80.38
2019-02-27T00:11:46.195Z,80.60
2019-02-27T00:14:15.221Z,81.03
2019-02-27T00:16:45.433Z,81.32
2019-02-27T00:19:15.660Z,81.42
2019-02-27T00:21:46.079Z,81.32
2019-02-27T00:24:16.378Z,81.21
2019-02-27T00:26:46.590Z,81.31
2019-02-27T00:29:16.753Z,81.13
2019-02-27T00:31:46.913Z,80.86
2019-02-27T00:34:17.122Z,80.19
2019-02-27T00:36:47.402Z,80.59
2019-02-27T00:39:17.576Z,80.84
2019-02-27T00:41:48.076Z,81.24
2019-02-27T00:44:18.707Z,81.62
2019-02-27T00:46:49.010Z,81.81
2019-02-27T00:49:19.269Z,82.08
2019-02-27T00:51:49.536Z,82.14
2019-02-27T00:54:19.717Z,82.22
2019-02-27T00:56:50.018Z,81.91
2019-02-27T00:59:20.642Z,82.16
2019-02-27T01:01:50.924Z,82.37
2019-02-27T01:04:21.225Z,82.21
2019-02-27T01:06:51.581Z,82.42
2019-02-27T01:09:21.705Z,82.28
2019-02-27T01:11:52.514Z,82.41
2019-02-27T01:14:22.812Z,82.43
2019-02-27T01:16:54.162Z,82.59
2019-02-27T01:19:24.292Z,82.86
2019-02-27T01:21:54.530Z,82.66
2019-02-27T01:24:24.661Z,82.34
2019-02-27T01:26:55.193Z,82.77
2019-02-27T01:29:25.401Z,82.80
2019-02-27T01:31:57.671Z,82.45
2019-02-27T01:34:27.751Z,82.61
2019-02-27T01:36:58.638Z,82.66
2019-02-27T01:39:28.826Z,83.01
2019-02-27T01:41:59.165Z,82.99
2019-02-27T01:44:29.415Z,83.17
2019-02-27T01:47:02.328Z,83.30
2019-02-27T01:49:31.565Z,83.27
2019-02-27T01:52:02.226Z,83.38
2019-02-27T01:54:32.925Z,83.75
2019-02-27T01:57:03.599Z,84.05
2019-02-27T01:59:34.210Z,84.16
2019-02-27T02:02:05.573Z,84.14
2019-02-27T02:04:35.848Z,84.06
2019-02-27T02:07:06.581Z,83.99
2019-02-27T02:09:39.110Z,84.29
2019-02-27T02:12:22.164Z,84.54
2019-02-27T02:15:08.477Z,84.46
2019-02-27T02:18:19.772Z,84.70
2019-02-27T02:21:02.482Z,84.76
2019-02-27T02:23:52.435Z,84.93
2019-02-27T02:27:07.762Z,84.82
2019-02-27T02:30:18.547Z,84.50
2019-02-27T02:33:28.950Z,84.37
2019-02-27T02:36:33.538Z,84.39
2019-02-27T02:39:35.722Z,84.34
2019-02-27T02:42:59.190Z,84.32
2019-02-27T02:45:37.256Z,84.12
2019-02-27T02:48:48.494Z,83.87
2019-02-27T02:52:05.542Z,83.97
2019-02-27T02:54:56.929Z,84.43
2019-02-27T02:58:11.446Z,84.73
2019-02-27T03:00:47.229Z,85.21
2019-02-27T03:03:51.701Z,85.74
2019-02-27T03:06:48.843Z,85.94
2019-02-27T03:10:21.373Z,85.75
2019-02-27T03:13:13.634Z,85.75
2019-02-27T03:16:23.332Z,85.56
2019-02-27T03:19:41.426Z,85.31
2019-02-27T03:22:29.285Z,85.22
2019-02-27T03:25:51.190Z,85.44
2019-02-27T03:28:40.966Z,85.72
2019-02-27T03:31:30.646Z,85.69
2019-02-27T03:34:57.222Z,85.98
2019-02-27T03:37:55.348Z,85.98
2019-02-27T03:41:00.581Z,86.26
2019-02-27T03:43:57.841Z,86.36
2019-02-27T03:46:55.379Z,85.84
2019-02-27T03:49:53.604Z,86.02
2019-02-27T03:53:11.023Z,86.16
2019-02-27T03:56:28.715Z,86.06
2019-02-27T03:59:23.073Z,86.09
2019-02-27T04:02:30.959Z,86.08
2019-02-27T04:05:28.365Z,85.92
2019-02-27T04:08:43.484Z,85.80
2019-02-27T04:11:08.392Z,85.75
2019-02-27T04:13:38.525Z,85.87
2019-02-27T04:16:09.813Z,85.93
2019-02-27T04:18:38.310Z,85.93
2019-02-27T04:21:08.708Z,86.04
2019-02-27T04:23:39.098Z,86.16
2019-02-27T04:26:09.714Z,86.33
2019-02-27T04:28:40.029Z,86.31
2019-02-27T04:31:10.191Z,86.39
2019-02-27T04:33:40.333Z,86.51
2019-02-27T04:36:12.836Z,86.65
2019-02-27T04:38:42.519Z,86.80
2019-02-27T04:41:12.727Z,86.80
2019-02-27T04:43:42.915Z,86.62
2019-02-27T04:46:13.183Z,86.80
2019-02-27T04:48:43.422Z,87.15
2019-02-27T04:51:16.914Z,87.25
2019-02-27T04:53:46.064Z,87.21
2019-02-27T04:56:17.134Z,87.07
2019-02-27T04:58:47.487Z,87.01
2019-02-27T05:01:18.169Z,87.04
2019-02-27T05:03:48.486Z,87.10
2019-02-27T05:06:18.668Z,87.12
2019-02-27T05:08:49.092Z,87.23
2019-02-27T05:11:19.426Z,87.49
2019-02-27T05:13:54.109Z,87.55
2019-02-27T05:16:21.741Z,87.70
2019-02-27T05:18:51.930Z,88.05
2019-02-27T05:21:22.553Z,88.10
2019-02-27T05:23:52.948Z,87.97
2019-02-27T05:26:27.028Z,87.74
2019-02-27T05:28:56.603Z,87.33
2019-02-27T05:31:26.739Z,87.35
2019-02-27T05:33:57.059Z,87.69
2019-02-27T05:36:29.004Z,87.76
2019-02-27T05:38:59.937Z,87.87
2019-02-27T05:41:32.965Z,87.79
2019-02-27T05:44:02.360Z,87.79
2019-02-27T05:46:32.730Z,87.98
2019-02-27T05:49:02.937Z,88.05
2019-02-27T05:51:33.252Z,88.14
2019-02-27T05:54:03.403Z,87.93
2019-02-27T05:56:33.769Z,88.00
2019-02-27T05:59:03.893Z,87.93
2019-02-27T06:01:38.007Z,87.87
2019-02-27T06:04:06.307Z,87.73
2019-02-27T06:06:38.013Z,87.60
2019-02-27T06:09:10.391Z,87.82
2019-02-27T06:11:40.312Z,87.95
2019-02-27T06:14:10.582Z,88.04
2019-02-27T06:16:40.987Z,88.19
2019-02-27T06:19:11.202Z,88.17
2019-02-27T06:21:41.397Z,88.23
2019-02-27T06:24:12.710Z,88.28
2019-02-27T06:26:43.651Z,88.07
2019-02-27T06:29:13.908Z,87.58
2019-02-27T06:31:44.021Z,87.22
2019-02-27T06:34:14.263Z,87.06
2019-02-27T06:36:44.547Z,86.88
2019-02-27T06:39:15.295Z,86.73
2019-02-27T06:41:47.429Z,86.60
2019-02-27T06:44:19.114Z,86.83
2019-02-27T06:46:51.151Z,86.83
2019-02-27T06:49:21.239Z,87.15
2019-02-27T06:51:51.563Z,87.57
2019-02-27T06:54:21.719Z,87.62
2019-02-27T06:56:51.898Z,87.50
2019-02-27T06:59:24.740Z,87.27
2019-02-27T07:01:54.242Z,87.21
2019-02-27T07:04:24.486Z,87.36
2019-02-27T07:06:55.458Z,87.35
2019-02-27T07:09:26.498Z,87.04
2019-02-27T07:11:56.919Z,87.04
2019-02-27T07:14:27.093Z,87.13
2019-02-27T07:16:57.903Z,87.08
2019-02-27T07:19:28.396Z,87.70
2019-02-27T07:21:58.649Z,87.65
2019-02-27T07:24:30.575Z,87.66
2019-02-27T07:27:02.135Z,87.59
2019-02-27T07:29:32.512Z,87.67
2019-02-27T07:32:03.145Z,87.88
2019-02-27T07:34:33.330Z,88.04
2019-02-27T07:37:03.743Z,88.11
2019-02-27T07:39:34.081Z,88.14
2019-02-27T07:42:04.316Z,88.15
2019-02-27T07:44:35.146Z,88.18
2019-02-27T07:47:06.418Z,88.54
2019-02-27T07:49:37.683Z,88.75
2019-02-27T07:52:07.803Z,89.34
2019-02-27T07:54:38.013Z,89.01
2019-02-27T07:57:08.418Z,89.10
2019-02-27T07:59:39.555Z,88.74
2019-02-27T08:02:09.831Z,88.70
2019-02-27T08:04:39.999Z,88.22
2019-02-27T08:07:12.388Z,87.25
2019-02-27T08:09:42.249Z,86.10
2019-02-27T08:12:12.458Z,85.23
2019-02-27T08:14:42.608Z,83.16
2019-02-27T08:17:17.738Z,80.52
2019-02-27T08:19:45.462Z,75.74
2019-02-27T08:22:16.299Z,73.50
2019-02-27T08:24:46.488Z,72.68
2019-02-27T08:27:16.631Z,69.28
2019-02-27T08:29:46.804Z,62.70
2019-02-27T08:32:17.183Z,57.70
2019-02-27T08:34:47.779Z,53.22
2019-02-27T08:37:20.240Z,51.10
2019-02-27T08:39:50.526Z,44.76
2019-02-27T08:42:21.219Z,44.20
2019-02-27T08:44:51.719Z,42.34
2019-02-27T08:47:22.071Z,38.50
2019-02-27T08:49:57.611Z,37.68
2019-02-27T08:52:24.356Z,35.37
2019-02-27T08:54:54.694Z,35.72
2019-02-27T08:57:24.838Z,34.50
2019-02-27T08:59:55.083Z,31.54
2019-02-27T09:02:29.183Z,30.50
2019-02-27T09:04:58.248Z,30.06
2019-02-27T09:07:28.554Z,28.96
2019-02-27T09:09:58.847Z,28.49
2019-02-27T09:12:30.678Z,27.40
2019-02-27T09:15:01.034Z,27.26
2019-02-27T09:17:32.770Z,26.51
2019-02-27T09:20:03.477Z,26.07
2019-02-27T09:22:33.922Z,25.32
2019-02-27T09:25:05.923Z,24.84
2019-02-27T09:27:36.083Z,23.92
2019-02-27T09:30:07.771Z,23.02
2019-02-27T09:32:38.370Z,22.29
2019-02-27T09:35:10.208Z,21.87
2019-02-27T09:37:40.633Z,21.92
2019-02-27T09:40:13.418Z,21.54
2019-02-27T09:42:43.779Z,20.64
2019-02-27T09:45:23.841Z,20.28
2019-02-27T09:47:53.991Z,19.76
2019-02-27T09:50:33.270Z,18.83
2019-02-27T09:53:04.426Z,17.89
2019-02-27T09:55:36.359Z,17.73
2019-02-27T09:58:11.012Z,16.85
2019-02-27T10:00:51.372Z,16.83
2019-02-27T10:03:21.696Z,16.54
2019-02-27T10:05:52.026Z,16.50
2019-02-27T10:08:25.346Z,16.12
2019-02-27T10:10:54.888Z,18.02
2019-02-27T10:13:25.164Z,19.10
2019-02-27T10:16:00.550Z,19.29
2019-02-27T10:18:27.742Z,19.06
2019-02-27T10:20:58.514Z,18.32
2019-02-27T10:23:31.140Z,17.75
2019-02-27T10:26:01.150Z,17.48
2019-02-27T10:28:38.698Z,16.27
2019-02-27T10:31:06.638Z,15.22
2019-02-27T10:33:36.918Z,14.30
2019-02-27T10:36:07.502Z,14.05
2019-02-27T10:38:40.362Z,13.56
2019-02-27T10:41:10.284Z,13.75
2019-02-27T10:43:40.945Z,13.07
2019-02-27T10:46:11.454Z,13.27
2019-02-27T10:48:41.783Z,13.24
2019-02-27T10:51:12.202Z,12.75
2019-02-27T10:53:42.443Z,12.82
2019-02-27T10:56:13.447Z,13.26
2019-02-27T10:58:45.038Z,13.49
2019-02-27T11:01:15.774Z,12.58
2019-02-27T11:03:46.024Z,11.96
2019-02-27T11:14:39.453Z,11.19
2019-02-27T11:17:10.103Z,10.69
2019-02-27T11:19:40.670Z,10.57
2019-02-27T11:22:10.924Z,10.51
2019-02-27T11:24:41.522Z,10.15
2019-02-27T11:27:12.073Z,11.26
2019-02-27T11:29:42.525Z,12.22
2019-02-27T11:32:12.893Z,11.25
2019-02-27T11:34:45.613Z,10.52
2019-02-27T11:37:16.512Z,10.79
2019-02-27T11:39:47.021Z,11.39
2019-02-27T11:42:18.658Z,10.28
2019-02-27T11:44:50.234Z,9.57
2019-02-27T11:47:20.441Z,10.98
2019-02-27T11:49:50.913Z,10.78
2019-02-27T11:52:21.111Z,10.04
2019-02-27T11:54:51.354Z,9.24
2019-02-27T11:57:21.530Z,8.72
2019-02-27T11:59:51.689Z,8.68
2019-02-27T12:02:28.754Z,8.52
2019-02-27T12:04:56.609Z,9.36
2019-02-27T12:07:25.921Z,9.37
2019-02-27T12:09:56.288Z,8.61
2019-02-27T12:12:26.518Z,7.80
2019-02-27T12:14:56.719Z,7.64
2019-02-27T12:17:26.950Z,6.94
2019-02-27T12:19:57.214Z,7.69
2019-02-27T12:22:28.484Z,8.57
2019-02-27T12:24:58.732Z,8.52
2019-02-27T12:27:47.739Z,9.10
2019-02-27T12:30:02.847Z,8.18
2019-02-27T12:32:34.194Z,9.47
2019-02-27T12:35:04.458Z,8.53
2019-02-27T12:37:34.998Z,8.96
2019-02-27T12:40:06.357Z,8.26
2019-02-27T12:42:37.498Z,8.60
2019-02-27T12:45:12.419Z,7.87
2019-02-27T12:47:42.954Z,7.65
2019-02-27T12:50:14.849Z,7.50
2019-02-27T12:52:47.939Z,7.59
2019-02-27T12:55:18.042Z,8.00
2019-02-27T12:57:49.589Z,8.05
2019-02-27T13:00:25.728Z,7.76
2019-02-27T13:02:58.926Z,8.09
2019-02-27T13:05:29.805Z,7.70
2019-02-27T13:08:00.278Z,7.57
2019-02-27T13:10:34.184Z,6.66
2019-02-27T13:13:02.608Z,6.65
2019-02-27T13:15:33.162Z,6.23
2019-02-27T13:18:03.884Z,6.15
2019-02-27T13:20:34.231Z,5.82
2019-02-27T13:23:05.397Z,5.56
2019-02-27T13:25:36.320Z,5.13
2019-02-27T13:28:06.653Z,4.92
2019-02-27T13:30:41.314Z,5.13
2019-02-27T13:33:09.094Z,5.74
2019-02-27T13:35:39.708Z,6.21
2019-02-27T13:38:10.167Z,6.42
2019-02-27T13:40:40.644Z,5.37
2019-02-27T13:43:10.838Z,5.28
2019-02-27T13:45:42.519Z,5.22
2019-02-27T13:48:14.107Z,5.14
2019-02-27T13:50:44.356Z,5.45
2019-02-27T13:53:15.098Z,5.46
2019-02-27T13:55:48.113Z,5.69
2019-02-27T13:58:17.665Z,5.88
2019-02-27T14:00:48.960Z,5.93
2019-02-27T14:03:19.764Z,5.52
2019-02-27T14:05:50.250Z,5.61
2019-02-27T14:08:20.723Z,5.73
2019-02-27T14:10:53.366Z,6.08
2019-02-27T14:13:23.734Z,6.31
2019-02-27T14:15:53.984Z,6.02
2019-02-27T14:18:24.730Z,6.13
2019-02-27T14:20:55.496Z,5.97
2019-02-27T14:23:26.167Z,5.92
2019-02-27T14:25:56.643Z,5.95
2019-02-27T14:28:27.100Z,6.58
2019-02-27T14:30:57.414Z,7.00
2019-02-27T14:33:28.210Z,6.79
2019-02-27T14:35:58.604Z,6.80
2019-02-27T14:38:28.818Z,6.63
2019-02-27T14:40:59.191Z,6.41
2019-02-27T14:43:29.971Z,7.34
2019-02-27T14:46:00.864Z,7.53
2019-02-27T14:48:31.389Z,7.58
2019-02-27T14:51:01.813Z,8.07
2019-02-27T14:53:32.349Z,9.53
2019-02-27T14:56:03.667Z,10.14
2019-02-27T14:58:34.216Z,9.94
2019-02-27T15:01:05.202Z,11.32
2019-02-27T15:03:35.697Z,11.85
2019-02-27T15:06:05.919Z,13.56
2019-02-27T15:08:36.474Z,13.03
2019-02-27T15:11:06.987Z,13.60
2019-02-27T15:13:37.479Z,12.45
2019-02-27T15:16:07.717Z,13.13
2019-02-27T15:18:37.944Z,13.29
2019-02-27T15:21:12.988Z,13.42
2019-02-27T15:23:40.725Z,14.55
2019-02-27T15:26:13.878Z,14.30
2019-02-27T15:28:43.459Z,15.05
2019-02-27T15:31:13.786Z,17.14
2019-02-27T15:33:43.942Z,17.31
2019-02-27T15:36:14.175Z,18.91
2019-02-27T15:38:46.143Z,18.56
2019-02-27T15:41:17.357Z,18.13
2019-02-27T15:43:57.436Z,19.03
2019-02-27T15:46:21.902Z,19.33
2019-02-27T15:48:51.946Z,19.68
2019-02-27T15:51:22.445Z,19.58
2019-02-27T15:53:52.946Z,20.47
2019-02-27T15:56:23.197Z,20.52
2019-02-27T15:58:53.689Z,20.81
2019-02-27T16:01:27.943Z,20.87
2019-02-27T16:03:56.749Z,21.71
2019-02-27T16:06:27.300Z,22.37
2019-02-27T16:08:58.414Z,22.42
2019-02-27T16:11:28.695Z,22.49
2019-02-27T16:13:59.206Z,22.68
2019-02-27T16:16:29.753Z,23.12
2019-02-27T16:19:00.031Z,23.63
2019-02-27T16:21:30.745Z,23.15
2019-02-27T16:24:01.211Z,24.66
2019-02-27T16:26:31.509Z,25.16
2019-02-27T16:29:02.086Z,25.76
2019-02-27T16:31:32.884Z,25.83
2019-02-27T16:34:03.434Z,25.85
2019-02-27T16:36:36.429Z,26.59
2019-02-27T16:39:08.298Z,27.65
2019-02-27T16:41:40.661Z,28.25
2019-02-27T16:44:11.207Z,28.26
2019-02-27T16:46:44.567Z,29.38
2019-02-27T16:49:14.148Z,30.09
2019-02-27T16:51:45.526Z,30.49
2019-02-27T16:54:16.658Z,31.53
2019-02-27T16:56:50.027Z,31.62
2019-02-27T16:59:20.022Z,31.15
2019-02-27T17:01:50.591Z,32.43
2019-02-27T17:04:21.059Z,33.12
2019-02-27T17:06:52.430Z,33.57
2019-02-27T17:09:22.638Z,34.09
2019-02-27T17:11:52.970Z,34.28
2019-02-27T17:14:24.424Z,35.08
2019-02-27T17:16:55.172Z,35.35
2019-02-27T17:19:26.020Z,35.75
2019-02-27T17:21:58.811Z,35.42
2019-02-27T17:24:29.467Z,36.48
2019-02-27T17:26:59.921Z,36.74
2019-02-27T17:29:31.137Z,37.25
2019-02-27T17:32:02.035Z,37.60
2019-02-27T17:34:32.489Z,38.04
2019-02-27T17:37:03.639Z,38.47
2019-02-27T17:39:34.792Z,38.74
2019-02-27T17:42:05.036Z,39.22
2019-02-27T17:44:37.642Z,39.85
2019-02-27T17:47:08.271Z,40.15
2019-02-27T17:49:38.548Z,40.55
2019-02-27T17:52:11.547Z,41.31
2019-02-27T17:54:41.533Z,41.88
2019-02-27T17:57:11.876Z,42.09
2019-02-27T17:59:42.373Z,42.30
2019-02-27T18:02:13.459Z,42.67
2019-02-27T18:04:45.677Z,42.96
2019-02-27T18:07:15.857Z,43.18
2019-02-27T18:09:46.316Z,43.45
2019-02-27T18:12:16.808Z,43.60
2019-02-27T18:14:47.251Z,44.23
2019-02-27T18:17:17.619Z,45.08
2019-02-27T18:19:50.267Z,45.38
2019-02-27T18:22:20.262Z,45.74
2019-02-27T18:24:50.880Z,45.90
2019-02-27T18:27:24.646Z,46.17
2019-02-27T18:29:53.505Z,46.83
2019-02-27T18:32:24.339Z,46.99
2019-02-27T18:34:55.277Z,47.37
2019-02-27T18:37:25.764Z,47.55
2019-02-27T18:39:56.191Z,47.45
2019-02-27T18:42:27.035Z,48.14
2019-02-27T18:44:57.553Z,48.54
2019-02-27T18:47:28.541Z,48.96
2019-02-27T18:49:58.941Z,49.17
2019-02-27T18:52:29.512Z,49.72
2019-02-27T18:54:59.904Z,49.72
2019-02-27T18:57:30.505Z,50.07
2019-02-27T19:00:02.356Z,50.30
2019-02-27T19:02:33.350Z,50.47
2019-02-27T19:05:06.663Z,50.60
2019-02-27T19:07:35.825Z,50.94
2019-02-27T19:10:06.803Z,51.37
2019-02-27T19:12:38.131Z,51.50
2019-02-27T19:15:11.425Z,51.88
2019-02-27T19:17:42.632Z,52.44
2019-02-27T19:20:14.373Z,52.76
2019-02-27T19:22:45.502Z,53.02
2019-02-27T19:25:16.003Z,53.35
2019-02-27T19:27:46.468Z,53.49
2019-02-27T19:30:18.381Z,53.55
2019-02-27T19:32:49.609Z,53.90
2019-02-27T19:35:21.692Z,54.57
2019-02-27T19:37:53.080Z,55.11
2019-02-27T19:40:24.009Z,55.16
2019-02-27T19:42:59.325Z,55.08
2019-02-27T19:45:30.279Z,55.31
2019-02-27T19:48:00.703Z,55.91
2019-02-27T19:50:31.629Z,56.34
2019-02-27T19:53:05.198Z,56.68
2019-02-27T19:55:35.302Z,57.11
2019-02-27T19:58:06.196Z,57.12
2019-02-27T20:00:38.071Z,57.72
2019-02-27T20:03:09.516Z,58.03
2019-02-27T20:05:39.994Z,58.48
2019-02-27T20:08:11.149Z,58.73
2019-02-27T20:10:44.230Z,58.97
2019-02-27T20:13:14.901Z,58.79
2019-02-27T20:15:46.417Z,58.90
2019-02-27T20:18:18.158Z,58.95
2019-02-27T20:20:48.785Z,59.25
2019-02-27T20:23:19.685Z,59.49
2019-02-27T20:25:50.362Z,59.68
2019-02-27T20:28:20.833Z,59.96
2019-02-27T20:30:51.423Z,60.04
2019-02-27T20:33:22.541Z,60.00
2019-02-27T20:35:55.654Z,60.07
2019-02-27T20:38:25.962Z,60.32
2019-02-27T20:40:56.953Z,60.42
2019-02-27T20:43:29.411Z,60.56
2019-02-27T20:46:00.845Z,60.75
2019-02-27T20:48:32.303Z,60.68
2019-02-27T20:51:06.019Z,61.00
2019-02-27T20:53:36.122Z,61.19
2019-02-27T20:56:07.103Z,61.36
2019-02-27T20:58:37.607Z,61.42
2019-02-27T21:01:11.052Z,61.63
2019-02-27T21:03:40.475Z,62.00
2019-02-27T21:06:12.872Z,62.23
2019-02-27T21:08:43.193Z,62.48
2019-02-27T21:11:13.886Z,62.60
2019-02-27T21:13:49.323Z,63.12
2019-02-27T21:16:17.032Z,63.19
2019-02-27T21:18:47.682Z,63.37
2019-02-27T21:21:20.655Z,63.72
2019-02-27T21:23:52.340Z,63.82
2019-02-27T21:26:23.629Z,63.72
2019-02-27T21:28:58.502Z,63.80
2019-02-27T21:31:27.687Z,64.12
2019-02-27T21:33:58.580Z,64.38
2019-02-27T21:36:28.922Z,64.66
2019-02-27T21:38:59.604Z,64.74
2019-02-27T21:41:30.178Z,64.59
2019-02-27T21:44:01.177Z,64.67
2019-02-27T21:46:32.793Z,64.94
2019-02-27T21:49:04.777Z,64.98
2019-02-27T21:51:35.195Z,65.27
2019-02-27T21:54:05.993Z,65.64
2019-02-27T21:56:36.498Z,66.13
2019-02-27T21:59:07.056Z,66.21
2019-02-27T22:01:38.387Z,66.08
2019-02-27T22:04:09.770Z,66.36
2019-02-27T22:06:41.160Z,66.45
2019-02-27T22:09:13.635Z,66.73
2019-02-27T22:11:44.224Z,67.08
2019-02-27T22:14:16.602Z,67.54
2019-02-27T22:16:46.471Z,68.45
2019-02-27T22:19:18.997Z,68.11
2019-02-27T22:21:49.051Z,67.99
2019-02-27T22:24:20.947Z,68.19
2019-02-27T22:26:51.642Z,68.41
2019-02-27T22:29:22.287Z,68.21
2019-02-27T22:31:52.520Z,68.34
2019-02-27T22:34:22.967Z,68.33
2019-02-27T22:36:53.341Z,68.54
2019-02-27T22:39:23.973Z,68.80
2019-02-27T22:41:54.164Z,69.00
2019-02-27T22:44:26.335Z,68.86
2019-02-27T22:46:56.673Z,69.05
2019-02-27T22:49:26.821Z,69.66
2019-02-27T22:51:57.019Z,70.23
2019-02-27T22:54:27.355Z,70.05
2019-02-27T22:56:57.600Z,70.33
2019-02-27T22:59:28.883Z,70.45
2019-02-27T23:01:59.235Z,70.76
2019-02-27T23:04:30.663Z,70.95
2019-02-27T23:07:02.153Z,70.96
2019-02-27T23:09:32.957Z,71.18
2019-02-27T23:12:03.646Z,71.79
2019-02-27T23:14:33.988Z,71.72
2019-02-27T23:17:06.646Z,71.72
2019-02-27T23:19:36.916Z,71.86
2019-02-27T23:22:07.246Z,72.14
2019-02-27T23:24:37.554Z,72.62
2019-02-27T23:27:07.968Z,72.81
2019-02-27T23:29:39.907Z,73.03
2019-02-27T23:32:10.828Z,72.99
2019-02-27T23:34:41.677Z,73.07
2019-02-27T23:37:12.606Z,72.99
2019-02-27T23:39:43.659Z,73.58
2019-02-27T23:42:15.527Z,73.51
2019-02-27T23:44:45.852Z,73.32
2019-02-27T23:47:16.027Z,73.35
2019-02-27T23:49:46.337Z,73.61
2019-02-27T23:52:19.318Z,73.68
2019-02-27T23:54:48.629Z,73.77
2019-02-27T23:57:18.817Z,73.67
2019-02-27T23:59:49.031Z,73.30
